Главная страница
METAR-TAF:

METAR-TAF

Аэропорты :

Военно-морская академия США

Аннаполис, Мэриленд, США

широта: 38-59-29N, долгота: 076-29-00W, высота над уровнем моря: 2 м

Текущие метеонаблюдения

Эта сводка был подготовлена 23 минут назад, в 20:54 UTC
Ветер 11 Узел от западный с порывами до 21 Узел
Температура 12°C
Влажность 82%
Давление 1010 hPa
Видимость: 6.4 км
Сплошная облачность на высоте 6000 фута
небольшой дождь, дымка

METAR: KNAK 072054Z AUTO 28011G21KT 4SM -RA BR OVC060 12/09 A2983 RMK AO2 RAB1955 SLP103 P0002 60002 T01170094 50001 $

Время: 17:17 (21:17 UTC)


TAF: отсутствует

Метеонаблюдения и прогнозы для более 4000 аэропортов (сводки METAR и TAF).

Имеющиеся станции представлены на карте желтыми и красными точками.

Чтобы увидеть название станции, наведите на нее мышь.

Затем щелкните, чтобы увидеть метеонаблюдения и метеопрогнозы.

Управление картой: чтобы увеличить масштаб, щелкните зеленые кнопки с черным крестиком; чтобы уменьшить масштаб, щелкните зеленую кнопку с тире; для просмотра соседних карт щелкайте зеленые стрелки.


METAR-TAF: